Time;durP1;ratioP1;P1;durP2;ratioP2;P2;SDS_P1;SDS_P2;PMS_P1;PMS_P2;Temp;Humidity;BMP_temperature;BMP_pressure;BME280_temperature;BME280_humidity;BME280_pressure;Samples;Min_cycle;Max_cycle;Signal;HPM_P1;HPM_P2
2022/06/21 00:02:12;;;;;;;2.57;2.00;;;17.80;93.90;;;;;;5018405;28;20803;-84
2022/06/21 00:04:41;;;;;;;2.30;2.10;;;17.80;94.00;;;;;;5018043;28;20792;-85
2022/06/21 00:07:12;;;;;;;2.53;2.00;;;17.80;94.10;;;;;;5018011;28;20450;-85
2022/06/21 00:09:40;;;;;;;2.80;1.73;;;17.80;94.10;;;;;;5017608;28;20830;-85
2022/06/21 00:12:12;;;;;;;3.60;2.53;;;17.80;94.10;;;;;;5018730;28;20858;-83
2022/06/21 00:14:39;;;;;;;3.03;2.40;;;17.80;94.00;;;;;;5026170;28;20475;-83
2022/06/21 00:17:06;;;;;;;3.80;2.20;;;17.80;94.00;;;;;;5021148;28;20471;-83
2022/06/21 00:19:33;;;;;;;2.87;2.60;;;17.80;94.10;;;;;;5036863;28;20430;-82
2022/06/21 00:21:59;;;;;;;2.63;1.43;;;17.70;94.10;;;;;;5025309;28;20438;-83
2022/06/21 00:24:26;;;;;;;2.40;1.80;;;17.70;94.10;;;;;;5013042;28;20477;-84
2022/06/21 00:26:54;;;;;;;3.60;1.77;;;17.70;94.00;;;;;;5019111;28;20477;-85
2022/06/21 00:29:21;;;;;;;2.40;2.00;;;17.60;94.00;;;;;;5032891;28;20469;-84
2022/06/21 00:31:49;;;;;;;1.97;1.53;;;17.60;94.30;;;;;;5030818;28;20454;-85
2022/06/21 00:34:18;;;;;;;2.63;1.70;;;17.60;94.50;;;;;;5020421;28;20486;-84
2022/06/21 00:36:45;;;;;;;2.90;1.73;;;17.50;94.50;;;;;;5032390;28;20443;-84
2022/06/21 00:39:16;;;;;;;2.13;1.50;;;17.50;94.40;;;;;;5020092;28;20454;-85
2022/06/21 00:41:48;;;;;;;4.00;2.03;;;17.40;94.50;;;;;;5016615;28;20469;-84
2022/06/21 00:44:28;;;;;;;2.03;1.53;;;17.40;94.70;;;;;;5016957;28;20883;-85
2022/06/21 00:47:01;;;;;;;4.13;1.60;;;17.40;95.00;;;;;;5016489;28;20615;-85
2022/06/21 00:49:31;;;;;;;3.30;1.40;;;17.30;95.10;;;;;;5018221;28;20457;-85
2022/06/21 00:52:02;;;;;;;2.63;2.10;;;17.30;95.10;;;;;;5019997;28;20447;-85
2022/06/21 00:54:37;;;;;;;2.63;1.90;;;17.20;95.20;;;;;;5016791;28;20516;-84
2022/06/21 00:57:12;;;;;;;2.47;2.03;;;17.20;95.40;;;;;;5017935;28;20449;-84
2022/06/21 00:59:40;;;;;;;3.93;2.57;;;17.30;95.40;;;;;;5017554;28;20449;-85
2022/06/21 01:02:17;;;;;;;2.97;2.27;;;17.20;95.50;;;;;;5017879;28;20461;-85
2022/06/21 01:04:49;;;;;;;2.17;1.93;;;17.20;95.40;;;;;;5034298;28;20454;-84
2022/06/21 01:07:17;;;;;;;2.77;2.20;;;17.20;95.80;;;;;;5027914;28;20430;-85
2022/06/21 01:09:49;;;;;;;5.10;2.10;;;17.20;96.00;;;;;;5026512;28;20431;-85
2022/06/21 01:12:20;;;;;;;2.33;1.80;;;17.10;96.10;;;;;;5029537;28;20946;-85
2022/06/21 01:14:58;;;;;;;3.50;2.23;;;17.10;96.30;;;;;;5019502;28;20501;-85
2022/06/21 01:17:26;;;;;;;2.17;1.90;;;17.20;96.40;;;;;;5016843;28;20779;-85
2022/06/21 01:20:00;;;;;;;3.87;2.37;;;17.10;96.60;;;;;;5016246;28;20442;-85
2022/06/21 01:22:33;;;;;;;3.17;2.07;;;17.00;96.90;;;;;;5017512;28;20501;-85
2022/06/21 01:25:19;;;;;;;2.57;2.07;;;17.00;97.00;;;;;;5017590;28;20466;-85
2022/06/21 01:27:47;;;;;;;2.93;2.20;;;17.00;97.00;;;;;;5017127;28;20454;-85
2022/06/21 01:30:13;;;;;;;2.63;2.00;;;17.00;96.90;;;;;;5015619;28;20431;-85
2022/06/21 01:32:40;;;;;;;2.50;1.80;;;17.00;96.80;;;;;;5016532;28;20868;-85
2022/06/21 01:35:11;;;;;;;3.93;2.40;;;17.00;97.10;;;;;;5016079;28;20921;-85
2022/06/21 01:37:39;;;;;;;2.30;1.83;;;16.90;97.10;;;;;;5015577;28;20507;-85
2022/06/21 01:40:12;;;;;;;2.60;2.30;;;16.90;97.00;;;;;;5015962;28;20482;-85
2022/06/21 01:42:42;;;;;;;3.17;1.77;;;16.90;97.20;;;;;;5017745;28;20529;-85
2022/06/21 01:45:16;;;;;;;1.87;1.73;;;16.90;97.40;;;;;;5027267;28;21157;-85
2022/06/21 01:47:49;;;;;;;3.30;2.53;;;16.90;97.50;;;;;;5018336;28;20457;-85
2022/06/21 01:50:17;;;;;;;2.37;1.97;;;16.90;97.50;;;;;;5035584;28;20434;-86
2022/06/21 01:52:47;;;;;;;2.87;1.80;;;16.80;97.30;;;;;;5029570;28;20454;-85
2022/06/21 01:55:20;;;;;;;3.90;1.90;;;16.80;96.80;;;;;;5029639;28;20475;-85
2022/06/21 01:57:48;;;;;;;3.10;2.30;;;16.80;96.90;;;;;;5021219;28;20504;-85
2022/06/21 02:00:17;;;;;;;3.10;2.40;;;16.80;96.90;;;;;;5016343;28;20442;-85
2022/06/21 02:02:46;;;;;;;2.10;1.90;;;16.80;96.90;;;;;;5015905;28;20454;-85
2022/06/21 02:05:18;;;;;;;2.57;2.37;;;16.70;96.70;;;;;;5015897;28;20451;-85
2022/06/21 02:07:49;;;;;;;3.40;2.10;;;16.80;96.40;;;;;;5017783;28;20447;-85
2022/06/21 02:10:21;;;;;;;2.20;2.00;;;16.70;96.60;;;;;;5039963;28;20430;-84
2022/06/21 02:12:54;;;;;;;2.03;1.80;;;16.60;96.70;;;;;;5040281;28;20434;-84
2022/06/21 02:15:34;;;;;;;4.43;1.80;;;16.60;96.90;;;;;;5040458;28;20475;-84
2022/06/21 02:18:02;;;;;;;2.60;2.00;;;16.60;97.10;;;;;;5031718;28;20517;-86
2022/06/21 02:20:36;;;;;;;2.13;1.80;;;16.50;97.00;;;;;;5016015;28;20508;-85
2022/06/21 02:23:04;;;;;;;3.60;2.20;;;16.50;96.90;;;;;;5019110;28;21005;-85
2022/06/21 02:25:32;;;;;;;3.60;1.90;;;16.50;97.00;;;;;;5015184;28;20505;-85
2022/06/21 02:28:05;;;;;;;2.67;2.27;;;16.40;97.30;;;;;;5015125;28;20449;-85
2022/06/21 02:30:33;;;;;;;2.40;2.13;;;16.50;97.50;;;;;;5015511;28;20450;-85
2022/06/21 02:33:02;;;;;;;3.17;1.80;;;16.40;97.50;;;;;;5016026;28;20533;-85
2022/06/21 02:35:33;;;;;;;2.47;2.27;;;16.40;97.60;;;;;;5015305;28;21054;-85
2022/06/21 02:38:02;;;;;;;2.80;2.30;;;16.40;97.50;;;;;;5016069;28;20434;-85
2022/06/21 02:40:32;;;;;;;2.43;1.93;;;16.40;96.90;;;;;;5016528;28;20438;-85
2022/06/21 02:43:03;;;;;;;3.43;2.10;;;16.40;96.80;;;;;;5016036;28;20554;-84
2022/06/21 02:45:49;;;;;;;2.23;2.03;;;16.30;97.20;;;;;;5016005;28;20960;-85
2022/06/21 02:48:20;;;;;;;3.23;2.30;;;16.20;97.40;;;;;;5016108;28;21004;-85
2022/06/21 02:50:51;;;;;;;2.70;1.83;;;16.10;96.60;;;;;;5016124;28;20443;-85
2022/06/21 02:53:23;;;;;;;2.80;2.10;;;16.10;96.20;;;;;;5016171;28;20489;-85
2022/06/21 02:55:55;;;;;;;3.40;3.13;;;16.20;96.00;;;;;;5017686;28;20447;-84
2022/06/21 02:58:27;;;;;;;2.70;1.83;;;16.10;96.00;;;;;;5031266;28;20423;-84
2022/06/21 03:00:56;;;;;;;3.07;2.33;;;16.20;95.90;;;;;;5039006;28;20443;-83
2022/06/21 03:03:26;;;;;;;2.70;2.20;;;16.20;95.70;;;;;;5038340;28;20433;-83
2022/06/21 03:05:57;;;;;;;2.90;2.10;;;16.20;95.60;;;;;;5028125;28;20447;-85
2022/06/21 03:08:25;;;;;;;2.20;2.00;;;16.30;95.30;;;;;;5016423;28;20443;-85
2022/06/21 03:10:52;;;;;;;2.03;1.70;;;16.30;95.30;;;;;;5015297;28;20450;-84
2022/06/21 03:13:23;;;;;;;2.30;1.90;;;16.40;95.20;;;;;;5016591;28;20486;-85
2022/06/21 03:15:54;;;;;;;2.70;2.50;;;16.40;95.20;;;;;;5016430;28;20470;-84
2022/06/21 03:18:25;;;;;;;3.07;2.77;;;16.30;95.20;;;;;;5016475;28;20446;-85
2022/06/21 03:20:52;;;;;;;3.87;1.90;;;16.30;95.30;;;;;;5016857;28;20439;-85
2022/06/21 03:23:20;;;;;;;3.73;2.47;;;16.30;95.30;;;;;;5016370;28;20458;-85
2022/06/21 03:25:51;;;;;;;3.40;2.20;;;16.30;95.50;;;;;;5020852;28;20453;-85
2022/06/21 03:28:34;;;;;;;2.73;2.20;;;16.30;95.40;;;;;;5032819;28;20453;-85
2022/06/21 03:31:09;;;;;;;2.90;2.30;;;16.30;95.70;;;;;;5033737;28;20461;-85
2022/06/21 03:33:40;;;;;;;2.60;2.00;;;16.20;95.70;;;;;;5035824;28;20473;-85
2022/06/21 03:36:10;;;;;;;2.30;2.10;;;16.20;95.80;;;;;;5033723;28;20486;-85
2022/06/21 03:38:38;;;;;;;4.53;2.30;;;16.30;96.00;;;;;;5036937;28;20461;-84
2022/06/21 03:43:52;;;;;;;2.83;2.20;;;16.30;96.10;;;;;;5033571;28;20465;-84
2022/06/21 03:46:22;;;;;;;2.37;2.17;;;16.30;96.00;;;;;;5029633;28;20442;-84
2022/06/21 03:48:58;;;;;;;2.97;2.67;;;16.30;96.10;;;;;;5018784;28;20829;-85
2022/06/21 03:51:29;;;;;;;3.87;2.20;;;16.30;96.20;;;;;;5025933;28;20450;-84
2022/06/21 03:54:01;;;;;;;3.17;2.50;;;16.40;96.20;;;;;;5019598;28;20486;-84
2022/06/21 03:56:31;;;;;;;2.87;2.53;;;16.50;95.90;;;;;;5019075;28;20459;-84
2022/06/21 03:59:05;;;;;;;2.47;2.27;;;16.40;95.80;;;;;;5017880;28;20469;-84
2022/06/21 04:01:36;;;;;;;2.77;2.40;;;16.50;95.50;;;;;;5022325;28;20446;-84
2022/06/21 04:04:09;;;;;;;4.03;2.50;;;16.50;95.20;;;;;;5025945;28;20459;-85
2022/06/21 04:06:41;;;;;;;2.57;2.30;;;16.50;95.20;;;;;;5030454;28;20450;-86
2022/06/21 04:09:16;;;;;;;3.57;2.83;;;16.60;95.20;;;;;;5025884;28;20473;-84
2022/06/21 04:11:47;;;;;;;3.70;2.40;;;16.60;94.80;;;;;;5019448;28;20452;-81
2022/06/21 04:14:21;;;;;;;3.27;1.97;;;16.60;94.50;;;;;;5024442;28;20481;-82
2022/06/21 04:16:53;;;;;;;2.93;2.63;;;16.60;94.40;;;;;;5021582;28;20833;-82
2022/06/21 04:19:26;;;;;;;4.80;2.33;;;16.70;94.00;;;;;;5019561;28;20445;-80
2022/06/21 04:22:00;;;;;;;2.87;2.10;;;16.70;94.40;;;;;;5025867;28;20449;-79
2022/06/21 04:24:33;;;;;;;3.07;2.30;;;16.80;93.90;;;;;;5026407;28;20512;-79
2022/06/21 04:27:05;;;;;;;3.80;2.50;;;16.90;93.40;;;;;;5022227;28;20519;-82
2022/06/21 04:29:38;;;;;;;2.30;1.80;;;17.00;93.10;;;;;;5018183;28;20450;-82
2022/06/21 04:32:10;;;;;;;4.20;2.77;;;17.10;92.60;;;;;;5041019;28;20453;-85
2022/06/21 04:34:43;;;;;;;3.23;2.93;;;17.30;92.20;;;;;;5040757;28;20481;-85
2022/06/21 04:37:13;;;;;;;3.30;3.00;;;17.30;91.70;;;;;;5022934;28;20443;-85
2022/06/21 04:39:47;;;;;;;4.00;3.20;;;17.40;91.40;;;;;;5018681;28;20682;-85
2022/06/21 04:42:20;;;;;;;3.53;2.17;;;17.60;91.10;;;;;;5018916;28;20435;-85
2022/06/21 04:44:52;;;;;;;5.80;2.60;;;17.60;90.20;;;;;;5025359;28;20477;-85
2022/06/21 04:47:27;;;;;;;2.87;2.40;;;17.80;88.80;;;;;;5035448;28;20966;-85
2022/06/21 04:50:00;;;;;;;2.90;2.57;;;17.80;86.50;;;;;;5037809;28;20456;-85
2022/06/21 04:52:32;;;;;;;3.90;2.40;;;17.80;84.50;;;;;;5040256;28;20441;-85
2022/06/21 04:54:59;;;;;;;3.53;2.57;;;17.90;83.90;;;;;;5039647;28;20490;-85
2022/06/21 04:57:29;;;;;;;4.27;2.43;;;18.00;82.90;;;;;;5048368;28;20492;-85
2022/06/21 05:00:00;;;;;;;3.57;2.50;;;18.00;81.70;;;;;;5050015;28;20453;-85
2022/06/21 05:02:30;;;;;;;3.47;2.40;;;18.10;80.20;;;;;;5048233;28;20414;-85
2022/06/21 05:05:03;;;;;;;7.33;2.90;;;18.20;79.30;;;;;;5058793;28;20492;-86
2022/06/21 05:07:33;;;;;;;3.43;2.63;;;18.20;79.20;;;;;;5055053;28;20957;-85
2022/06/21 05:10:02;;;;;;;4.93;3.10;;;18.40;79.20;;;;;;5056279;28;20422;-85
2022/06/21 05:12:31;;;;;;;4.53;2.27;;;18.40;77.50;;;;;;5052393;28;20445;-85
2022/06/21 05:15:02;;;;;;;4.80;2.57;;;18.50;77.70;;;;;;5049603;28;20891;-86
2022/06/21 05:17:30;;;;;;;3.27;2.43;;;18.50;76.40;;;;;;5041601;28;20472;-86
2022/06/21 05:20:02;;;;;;;4.57;2.47;;;18.40;75.50;;;;;;5041194;28;20445;-83
2022/06/21 05:22:31;;;;;;;4.07;2.60;;;18.50;75.20;;;;;;5042029;28;20855;-85
2022/06/21 05:25:01;;;;;;;3.53;2.50;;;18.60;75.20;;;;;;5041479;28;20546;-86
2022/06/21 05:27:31;;;;;;;3.10;1.93;;;18.90;74.60;;;;;;5041950;28;20944;-86
2022/06/21 05:30:05;;;;;;;3.23;2.00;;;19.00;73.90;;;;;;5038772;28;20515;-86
2022/06/21 05:32:37;;;;;;;4.00;2.50;;;19.30;73.70;;;;;;5038349;28;20453;-85
2022/06/21 05:35:11;;;;;;;3.10;2.40;;;19.50;71.90;;;;;;5038315;28;20576;-85
2022/06/21 05:37:50;;;;;;;4.03;2.90;;;19.90;69.50;;;;;;5037855;28;20434;-86
2022/06/21 05:40:23;;;;;;;5.23;2.53;;;20.10;68.60;;;;;;5037459;28;20553;-86
2022/06/21 05:42:50;;;;;;;5.00;2.27;;;20.50;66.90;;;;;;5038220;28;20481;-86
2022/06/21 05:45:19;;;;;;;3.47;2.83;;;21.10;66.60;;;;;;5037643;28;20469;-86
2022/06/21 05:47:53;;;;;;;4.60;3.53;;;21.80;63.70;;;;;;5036209;28;20453;-86
2022/06/21 05:50:28;;;;;;;4.70;2.30;;;22.20;61.30;;;;;;5048732;28;20492;-85
2022/06/21 05:52:58;;;;;;;2.27;2.07;;;22.50;59.80;;;;;;5057401;28;20457;-86
2022/06/21 05:55:33;;;;;;;3.30;2.30;;;22.70;58.30;;;;;;5048676;28;20489;-85
2022/06/21 05:58:03;;;;;;;4.50;2.40;;;22.30;57.90;;;;;;5055215;28;20479;-86
2022/06/21 06:00:37;;;;;;;2.80;1.90;;;22.50;58.60;;;;;;5041951;28;20437;-86
2022/06/21 06:03:10;;;;;;;3.33;2.93;;;22.50;58.10;;;;;;5042599;28;20452;-86
2022/06/21 06:05:40;;;;;;;2.40;2.17;;;22.10;57.70;;;;;;5042760;28;20461;-86
2022/06/21 06:08:12;;;;;;;3.33;2.80;;;21.40;58.40;;;;;;5041314;28;20870;-85
2022/06/21 06:10:42;;;;;;;5.83;2.33;;;21.20;60.50;;;;;;5054683;28;20511;-86
2022/06/21 06:13:13;;;;;;;3.47;2.47;;;20.90;60.00;;;;;;5054611;28;20426;-85
2022/06/21 06:15:46;;;;;;;8.47;3.07;;;20.80;61.30;;;;;;5056223;28;20473;-85
2022/06/21 06:18:19;;;;;;;4.30;2.73;;;20.60;60.70;;;;;;5047074;28;20468;-85
2022/06/21 06:20:54;;;;;;;4.60;3.23;;;20.60;62.20;;;;;;5045016;28;20996;-86
2022/06/21 06:23:28;;;;;;;3.17;2.20;;;20.70;61.00;;;;;;5048035;28;20449;-85
2022/06/21 06:25:59;;;;;;;4.97;2.77;;;20.90;61.60;;;;;;5042125;28;20945;-85
2022/06/21 06:28:31;;;;;;;4.47;2.77;;;21.10;60.60;;;;;;5041302;28;20469;-85
2022/06/21 06:31:04;;;;;;;2.53;2.10;;;21.00;59.30;;;;;;5040836;28;20976;-86
2022/06/21 06:33:35;;;;;;;2.60;2.40;;;21.50;59.60;;;;;;5039183;28;20445;-85
2022/06/21 06:36:07;;;;;;;4.83;3.10;;;22.40;58.20;;;;;;5036944;28;20489;-85
2022/06/21 06:38:35;;;;;;;3.70;2.40;;;23.40;56.20;;;;;;5036573;28;20997;-86
2022/06/21 06:41:08;;;;;;;5.70;2.73;;;23.60;55.00;;;;;;5036926;28;20472;-85
2022/06/21 06:43:40;;;;;;;3.87;2.27;;;24.00;54.70;;;;;;5036511;28;20448;-86
2022/06/21 06:46:10;;;;;;;4.33;2.80;;;24.50;53.30;;;;;;5037059;28;20445;-86
2022/06/21 06:48:40;;;;;;;5.30;2.83;;;24.80;52.20;;;;;;5048444;28;20437;-85
2022/06/21 06:51:37;;;;;;;4.40;1.93;;;24.60;52.10;;;;;;5054293;28;20453;-85
2022/06/21 06:54:07;;;;;;;5.13;2.60;;;25.20;51.90;;;;;;5057036;28;20472;-84
2022/06/21 06:56:45;;;;;;;5.43;2.60;;;25.50;51.50;;;;;;5057974;28;20436;-85
2022/06/21 06:59:15;;;;;;;3.80;2.50;;;26.00;49.90;;;;;;5056004;28;20441;-85
2022/06/21 07:01:47;;;;;;;2.67;1.80;;;26.40;50.00;;;;;;5054498;28;20454;-86
2022/06/21 07:04:17;;;;;;;4.00;2.17;;;26.80;48.10;;;;;;5039715;28;20477;-84
2022/06/21 07:06:47;;;;;;;2.30;2.10;;;26.40;48.60;;;;;;5036206;28;20496;-84
2022/06/21 07:09:20;;;;;;;2.50;2.10;;;27.00;47.90;;;;;;5035207;28;20484;-84
2022/06/21 07:11:52;;;;;;;3.93;2.07;;;27.20;47.10;;;;;;5035388;28;20453;-84
2022/06/21 07:14:21;;;;;;;3.17;2.10;;;27.70;47.20;;;;;;5040575;28;20456;-84
2022/06/21 07:16:53;;;;;;;2.70;1.87;;;27.40;46.90;;;;;;5052042;28;20444;-84
2022/06/21 07:19:20;;;;;;;3.40;2.30;;;27.30;46.50;;;;;;5040221;28;20493;-84
2022/06/21 07:21:48;;;;;;;3.00;2.00;;;26.70;46.70;;;;;;5036747;28;20479;-84
2022/06/21 07:24:17;;;;;;;4.70;2.43;;;26.70;47.40;;;;;;5035272;28;20526;-83
2022/06/21 07:26:48;;;;;;;2.97;2.27;;;27.30;48.00;;;;;;5036166;28;20447;-84
2022/06/21 07:29:24;;;;;;;3.80;2.57;;;27.90;46.20;;;;;;5035121;28;20453;-84
2022/06/21 07:31:55;;;;;;;3.90;2.00;;;28.00;45.60;;;;;;5037388;28;20441;-84
2022/06/21 07:34:31;;;;;;;6.23;2.53;;;27.30;45.80;;;;;;5045251;28;20542;-84
2022/06/21 07:37:04;;;;;;;4.77;2.40;;;28.00;46.80;;;;;;5045397;28;20476;-84
2022/06/21 07:39:37;;;;;;;5.30;2.47;;;27.30;46.40;;;;;;5041143;28;20511;-85
2022/06/21 07:42:09;;;;;;;3.70;2.90;;;26.00;47.50;;;;;;5036497;28;20561;-84
2022/06/21 07:44:42;;;;;;;5.70;3.10;;;25.50;49.40;;;;;;5037106;28;20463;-84
2022/06/21 07:47:21;;;;;;;4.30;2.60;;;25.60;50.30;;;;;;5036416;28;20500;-85
2022/06/21 07:49:51;;;;;;;3.07;2.37;;;25.20;50.20;;;;;;5035664;28;20900;-84
2022/06/21 07:52:24;;;;;;;2.17;1.90;;;25.20;50.90;;;;;;5035205;28;20457;-84
2022/06/21 07:54:55;;;;;;;8.07;2.50;;;24.90;51.50;;;;;;5034702;28;20485;-84
2022/06/21 07:57:27;;;;;;;4.40;2.63;;;24.80;51.70;;;;;;5036381;28;20453;-84
2022/06/21 07:59:58;;;;;;;2.43;2.23;;;24.50;52.40;;;;;;5039200;28;20449;-84
2022/06/21 08:08:15;;;;;;;4.03;2.40;;;26.10;51.50;;;;;;4978688;28;20964;-84
2022/06/21 08:10:47;;;;;;;2.83;2.17;;;26.90;48.80;;;;;;5034484;28;21027;-84
2022/06/21 08:13:14;;;;;;;4.77;3.07;;;25.90;49.70;;;;;;5034923;28;20442;-83
2022/06/21 08:15:44;;;;;;;3.37;2.83;;;25.40;50.70;;;;;;5037516;28;20498;-84
2022/06/21 08:18:17;;;;;;;5.40;3.03;;;24.30;52.80;;;;;;5054149;28;20422;-83
2022/06/21 08:20:48;;;;;;;5.40;3.20;;;24.00;53.60;;;;;;5043508;28;20498;-84
2022/06/21 08:23:20;;;;;;;4.97;3.20;;;24.30;54.00;;;;;;5049858;28;20457;-83
2022/06/21 08:26:01;;;;;;;4.70;2.87;;;24.30;53.80;;;;;;5042091;28;20449;-84
2022/06/21 08:28:37;;;;;;;9.10;3.00;;;23.80;54.30;;;;;;5037175;28;20992;-84
2022/06/21 08:31:11;;;;;;;3.90;3.00;;;23.20;55.80;;;;;;5037498;28;20532;-85
2022/06/21 08:33:43;;;;;;;4.60;2.30;;;22.80;56.30;;;;;;5037571;28;20450;-84
2022/06/21 08:36:15;;;;;;;3.83;2.77;;;23.00;57.80;;;;;;5036932;28;20908;-85
2022/06/21 08:38:47;;;;;;;4.97;3.23;;;23.00;57.20;;;;;;5036757;28;20832;-85
2022/06/21 08:45:40;;;;;;;2.90;2.30;;;22.90;57.00;;;;;;5037409;28;20457;-85
2022/06/21 08:48:03;;;;;;;5.37;2.97;;;22.90;57.30;;;;;;5052566;28;20449;-85
2022/06/21 08:50:56;;;;;;;2.37;2.17;;;22.90;57.40;;;;;;5033808;28;20450;-85
2022/06/21 08:53:39;;;;;;;3.20;2.63;;;23.10;57.80;;;;;;5033660;28;20917;-86
2022/06/21 08:56:15;;;;;;;4.20;3.10;;;22.70;58.70;;;;;;5035193;28;20489;-85
2022/06/21 08:58:58;;;;;;;3.33;2.37;;;22.60;59.40;;;;;;5035208;28;20453;-85
2022/06/21 09:01:31;;;;;;;3.53;2.83;;;22.40;58.90;;;;;;5035262;28;20453;-85
2022/06/21 09:04:13;;;;;;;2.77;2.33;;;22.30;59.60;;;;;;5042255;28;20552;-85
2022/06/21 09:06:53;;;;;;;3.03;2.50;;;22.60;59.50;;;;;;5038395;28;20437;-85
2022/06/21 09:09:41;;;;;;;4.10;3.20;;;22.40;59.00;;;;;;5034070;28;20450;-85
2022/06/21 09:12:30;;;;;;;3.67;2.70;;;22.30;59.60;;;;;;5033155;28;20452;-85
2022/06/21 09:15:26;;;;;;;6.20;3.70;;;22.40;60.10;;;;;;5033382;28;20469;-85
2022/06/21 09:18:01;;;;;;;3.10;2.20;;;23.40;59.00;;;;;;5032566;28;20458;-85
2022/06/21 09:20:38;;;;;;;2.97;2.63;;;25.10;56.40;;;;;;5033895;28;20440;-85
2022/06/21 09:23:08;;;;;;;4.90;2.30;;;26.40;53.60;;;;;;5040919;28;20481;-85
2022/06/21 09:25:45;;;;;;;3.37;2.57;;;26.70;52.30;;;;;;5036686;28;20463;-85
2022/06/21 09:28:24;;;;;;;2.43;2.23;;;27.20;52.00;;;;;;5051468;28;20518;-85
2022/06/21 09:30:58;;;;;;;4.33;2.30;;;27.50;50.90;;;;;;5053417;28;20452;-85
2022/06/21 09:33:35;;;;;;;2.73;2.30;;;28.10;50.00;;;;;;5054441;28;20447;-86
2022/06/21 09:36:09;;;;;;;5.67;2.90;;;27.80;49.60;;;;;;5037606;28;20481;-86
2022/06/21 09:38:44;;;;;;;3.73;2.70;;;27.70;50.30;;;;;;5033877;28;20485;-86
2022/06/21 09:41:17;;;;;;;3.87;2.33;;;28.10;49.80;;;;;;5033438;28;20454;-85
2022/06/21 09:44:01;;;;;;;5.50;2.80;;;28.40;49.20;;;;;;5043299;28;20974;-85
2022/06/21 09:46:37;;;;;;;3.77;2.30;;;28.30;49.20;;;;;;5032582;28;20452;-86
2022/06/21 09:49:10;;;;;;;3.53;2.70;;;29.40;48.00;;;;;;5032492;28;20446;-85
2022/06/21 09:51:45;;;;;;;3.33;2.93;;;29.40;46.80;;;;;;5033165;28;20501;-85
2022/06/21 09:54:31;;;;;;;4.57;3.07;;;29.50;47.10;;;;;;5036167;28;20788;-85
2022/06/21 09:57:12;;;;;;;3.73;2.03;;;31.50;45.60;;;;;;5036067;28;20557;-86
2022/06/21 09:59:48;;;;;;;3.77;2.37;;;31.90;43.40;;;;;;5036754;28;20454;-85
2022/06/21 10:02:23;;;;;;;3.63;3.00;;;32.00;43.20;;;;;;5036078;28;20450;-85
2022/06/21 10:05:03;;;;;;;3.50;2.17;;;31.20;44.20;;;;;;5036331;28;20519;-85
2022/06/21 10:07:44;;;;;;;3.93;2.70;;;31.00;44.00;;;;;;5036590;28;20447;-85
2022/06/21 10:10:29;;;;;;;4.00;2.70;;;30.10;45.10;;;;;;5039681;28;20449;-86
2022/06/21 10:13:05;;;;;;;3.80;3.20;;;30.10;45.80;;;;;;5044067;28;20452;-85
2022/06/21 10:15:40;;;;;;;5.27;3.17;;;30.40;45.50;;;;;;5036680;28;20488;-86
2022/06/21 10:18:27;;;;;;;3.13;2.70;;;30.90;45.00;;;;;;5036388;28;20450;-86
2022/06/21 10:21:07;;;;;;;2.87;2.47;;;31.70;43.90;;;;;;5036882;28;20453;-86
2022/06/21 10:23:57;;;;;;;3.23;2.93;;;32.20;43.20;;;;;;5035953;28;20449;-86
2022/06/21 10:26:50;;;;;;;3.63;3.13;;;33.50;41.70;;;;;;5035823;28;20468;-86
2022/06/21 10:29:42;;;;;;;3.57;3.10;;;32.70;41.90;;;;;;5056720;28;20469;-86
2022/06/21 10:32:33;;;;;;;6.07;3.80;;;32.30;42.50;;;;;;5057435;28;20455;-86
2022/06/21 10:35:30;;;;;;;3.13;2.73;;;32.80;42.20;;;;;;5055895;28;20465;-86
2022/06/21 10:38:17;;;;;;;5.23;2.87;;;32.30;42.80;;;;;;5038283;28;20459;-86
2022/06/21 10:40:54;;;;;;;4.47;2.90;;;32.80;43.70;;;;;;5038071;28;20796;-86
2022/06/21 10:44:00;;;;;;;3.40;2.77;;;33.50;41.50;;;;;;5036659;28;20481;-86
2022/06/21 10:46:35;;;;;;;2.90;2.70;;;34.10;41.30;;;;;;5041582;28;20451;-85
2022/06/21 10:49:18;;;;;;;3.33;3.00;;;35.50;39.60;;;;;;5051196;28;20504;-86
2022/06/21 10:52:11;;;;;;;3.40;2.70;;;34.30;40.70;;;;;;5050087;28;20453;-86
2022/06/21 10:55:07;;;;;;;5.90;3.23;;;34.60;40.40;;;;;;5052135;28;20483;-86
2022/06/21 10:57:46;;;;;;;3.00;2.47;;;35.40;39.30;;;;;;5043597;28;20484;-86
2022/06/21 11:03:23;;;;;;;3.87;3.47;;;35.00;39.50;;;;;;5035589;28;20431;-86
2022/06/21 11:06:03;;;;;;;5.53;3.00;;;36.10;38.60;;;;;;5035676;28;20831;-86
2022/06/21 11:08:44;;;;;;;3.50;3.20;;;35.60;38.90;;;;;;5035682;28;20460;-86
2022/06/21 11:11:19;;;;;;;4.27;2.83;;;35.10;39.80;;;;;;5035305;28;20459;-86
2022/06/21 11:13:57;;;;;;;3.40;3.10;;;35.60;39.40;;;;;;5034496;28;20504;-86
2022/06/21 11:16:40;;;;;;;3.33;3.03;;;35.00;40.30;;;;;;5042096;28;20491;-86
2022/06/21 11:19:20;;;;;;;4.07;2.97;;;35.30;40.50;;;;;;5053593;28;20445;-86
2022/06/21 11:22:03;;;;;;;3.80;3.33;;;35.70;39.90;;;;;;5036532;28;20454;-86
2022/06/21 11:24:43;;;;;;;6.13;2.90;;;36.00;39.80;;;;;;5034080;28;20505;-84
2022/06/21 11:27:16;;;;;;;4.60;3.30;;;36.40;39.60;;;;;;5034342;28;20823;-86
2022/06/21 11:29:48;;;;;;;5.67;4.33;;;37.00;38.90;;;;;;5034341;28;20821;-86
2022/06/21 11:32:24;;;;;;;3.43;3.13;;;35.90;39.10;;;;;;5034250;28;20450;-87
2022/06/21 11:35:02;;;;;;;3.90;3.60;;;34.40;41.20;;;;;;5051581;28;20456;-87
2022/06/21 11:37:41;;;;;;;4.63;3.20;;;33.90;42.20;;;;;;5054209;28;20478;-86
2022/06/21 11:40:26;;;;;;;4.70;3.87;;;33.70;42.60;;;;;;5055867;28;20480;-84
2022/06/21 11:42:56;;;;;;;4.83;3.60;;;32.00;45.40;;;;;;5054780;28;20448;-84
2022/06/21 11:45:41;;;;;;;4.83;3.43;;;31.30;46.80;;;;;;5043814;28;20466;-85
2022/06/21 11:48:33;;;;;;;4.60;4.10;;;31.40;47.00;;;;;;5050419;28;20511;-84
2022/06/21 11:51:14;;;;;;;4.93;4.17;;;31.40;47.60;;;;;;5041070;28;20458;-85
2022/06/21 11:53:57;;;;;;;3.97;3.60;;;31.10;48.50;;;;;;5035981;28;20481;-85
2022/06/21 11:56:30;;;;;;;5.40;3.93;;;31.60;48.50;;;;;;5048146;28;20501;-84
2022/06/21 11:59:06;;;;;;;4.20;3.80;;;32.60;46.60;;;;;;5053596;28;20439;-84
2022/06/21 12:01:42;;;;;;;5.37;4.60;;;32.10;47.00;;;;;;5054027;28;20431;-85
2022/06/21 12:04:22;;;;;;;4.50;4.10;;;32.80;46.30;;;;;;5051315;28;20881;-86
2022/06/21 12:06:55;;;;;;;5.00;4.43;;;33.10;45.90;;;;;;5045182;28;20464;-86
2022/06/21 12:09:31;;;;;;;4.00;3.53;;;32.20;47.00;;;;;;5039359;28;20455;-85
2022/06/21 12:12:22;;;;;;;4.50;3.53;;;32.40;47.50;;;;;;5037862;28;20443;-85
2022/06/21 12:15:00;;;;;;;6.03;3.80;;;32.40;47.30;;;;;;5033981;28;20478;-85
2022/06/21 12:17:41;;;;;;;5.53;3.60;;;33.00;46.80;;;;;;5037887;28;20487;-85
2022/06/21 12:20:15;;;;;;;4.53;4.13;;;32.70;46.90;;;;;;5037596;28;20449;-85
2022/06/21 12:22:46;;;;;;;5.00;4.23;;;31.80;47.70;;;;;;5020687;28;20453;-86
2022/06/21 12:25:17;;;;;;;6.07;3.80;;;31.30;48.60;;;;;;5038562;28;21008;-86
2022/06/21 12:27:44;;;;;;;4.27;3.87;;;30.70;49.90;;;;;;5039390;28;20957;-85
2022/06/21 12:30:19;;;;;;;4.20;3.80;;;31.00;50.10;;;;;;5042519;28;20473;-86
2022/06/21 12:32:46;;;;;;;5.80;4.30;;;31.80;49.20;;;;;;5041924;28;20450;-86
2022/06/21 12:35:15;;;;;;;6.60;4.20;;;32.00;48.80;;;;;;5043276;28;20488;-86
2022/06/21 12:37:46;;;;;;;4.47;4.03;;;31.70;49.20;;;;;;5040595;28;20481;-86
2022/06/21 12:40:25;;;;;;;5.83;5.07;;;31.70;49.60;;;;;;5041506;28;20446;-86
2022/06/21 12:43:18;;;;;;;5.73;4.30;;;32.00;49.40;;;;;;5039582;28;20451;-85
2022/06/21 12:45:54;;;;;;;5.37;4.50;;;32.40;49.00;;;;;;5046284;28;20440;-85
2022/06/21 12:48:36;;;;;;;5.53;4.63;;;32.20;48.90;;;;;;5053937;28;20443;-86
2022/06/21 12:51:11;;;;;;;6.40;4.80;;;31.60;49.60;;;;;;5054607;28;20444;-86
2022/06/21 12:54:02;;;;;;;5.47;5.07;;;31.30;50.10;;;;;;5053487;28;20459;-87
2022/06/21 12:56:52;;;;;;;4.87;4.43;;;30.50;52.10;;;;;;5052430;28;20479;-86
2022/06/21 12:59:38;;;;;;;5.30;4.70;;;31.30;51.20;;;;;;5051522;28;20437;-85
2022/06/21 13:02:31;;;;;;;5.90;4.13;;;32.20;49.80;;;;;;5054613;28;20467;-85
2022/06/21 13:05:23;;;;;;;4.03;3.73;;;34.20;46.60;;;;;;5039588;28;20474;-86
2022/06/21 13:08:12;;;;;;;4.10;3.80;;;34.60;45.20;;;;;;5035191;28;20448;-86
2022/06/21 13:10:43;;;;;;;4.13;3.83;;;35.50;44.80;;;;;;5036025;28;20944;-86
2022/06/21 13:13:37;;;;;;;4.50;4.10;;;37.30;41.80;;;;;;5035188;28;20445;-86
2022/06/21 13:16:16;;;;;;;4.60;4.20;;;37.80;40.40;;;;;;5035820;28;20445;-86
2022/06/21 13:19:18;;;;;;;5.83;4.50;;;37.30;40.00;;;;;;5036375;28;20870;-86
2022/06/21 13:22:05;;;;;;;5.47;4.40;;;37.30;41.00;;;;;;5033445;28;20448;-87
2022/06/21 13:24:46;;;;;;;6.13;4.20;;;37.50;41.20;;;;;;5033876;28;20467;-86
2022/06/21 13:27:30;;;;;;;5.07;4.30;;;37.70;39.60;;;;;;5048911;28;20474;-84
2022/06/21 13:30:14;;;;;;;4.87;4.57;;;36.10;41.40;;;;;;5051834;28;20449;-85
2022/06/21 13:32:48;;;;;;;4.67;4.27;;;35.70;42.50;;;;;;5046914;28;20444;-85
2022/06/21 13:35:22;;;;;;;5.03;4.53;;;34.90;42.90;;;;;;5051428;28;20473;-85
2022/06/21 13:37:56;;;;;;;4.77;4.20;;;34.10;44.80;;;;;;5041978;28;20491;-84
2022/06/21 13:40:26;;;;;;;5.53;4.97;;;33.50;45.60;;;;;;5041759;28;20453;-84
2022/06/21 13:42:57;;;;;;;4.93;4.43;;;32.60;47.30;;;;;;5040143;28;20445;-84